• Join FlightAware (Why Join?)
  • Login
  • US Flag 
10:49AM EDT


 

Airport Tracker/Info


-or-


 

Live Flight TrackerFlight Track Log ✈ SWA2215 ✈ 15-Jun-2013 ✈ KBWI - KSLC

Flight Track Log - Related Links

Times and Time Zones

All times are in EDT time to prevent confusion due to time zone crossing. See the SWA2215 flight status page for this flight to view local times or setup timezone preferences in your user account.

Time Position Orientation Groundspeed Altitude Reporting Facility
EDT Latitude Longitude Course Direction KTS MPH feet Rate Location/Type
06:03PM 39.1833 -76.7333 270° West 173 199 1,800  Level Potomac TRACON
06:04PM 39.1833 -76.8000 270° West 235 270 3,200 2,100 Climbing Potomac TRACON
06:05PM 39.2103 -76.9389 284° West 248 285 7,200 2,880 Climbing Washington Center
06:06PM 39.2175 -77.0247 276° West 264 304 10,600 2,520 Climbing Washington Center
06:07PM 39.2600 -77.1247 299° West 283 326 12,300 2,280 Climbing Washington Center
06:08PM 39.3067 -77.2331 299° West 319 367 15,200 2,640 Climbing Washington Center
06:09PM 39.3550 -77.3469 299° West 351 404 17,700 2,160 Climbing Washington Center
06:10PM 39.4053 -77.4744 297° West 365 420 19,500 2,220 Climbing Washington Center
06:11PM 39.4533 -77.5858 299° West 376 433 22,200 2,280 Climbing Washington Center
06:12PM 39.4969 -77.7214 293° West 387 445 24,200 1,980 Climbing Washington Center
06:13PM 39.5361 -77.8544 291° West 399 459 26,200 1,860 Climbing Washington Center
06:16PM 39.6486 -78.2186 292° West 414 476 30,800 1,740 Climbing Cleveland Center
06:17PM 39.6889 -78.3575 291° West 414 476 32,400 1,500 Climbing Cleveland Center
06:18PM 39.7289 -78.4911 291° West 414 476 33,900 1,440 Climbing Cleveland Center
06:19PM 39.7669 -78.6278 290° West 409 471 35,300 1,020 Climbing Cleveland Center
06:20PM 39.8025 -78.7644 289° West 409 471 36,000 300 Climbing Cleveland Center
06:21PM 39.8400 -78.8958 290° West 404 465 36,000  Level Cleveland Center
06:22PM 39.8750 -79.0061 292° West 404 465 36,000  Level Cleveland Center
06:23PM 39.9164 -79.1539 290° West 404 465 36,000  Level Cleveland Center
06:24PM 39.9600 -79.3019 291° West 404 465 36,000  Level Cleveland Center
06:25PM 40.0028 -79.4150 296° West 404 465 36,000  Level Cleveland Center
06:26PM 40.0644 -79.5333 304° West 399 459 36,000  Level Cleveland Center
06:27PM 40.1258 -79.6517 304° West 399 459 36,000  Level Cleveland Center
06:28PM 40.2122 -79.7647 315° West 393 452 36,000  Level Cleveland Center
06:29PM 40.2983 -79.8481 324° Northwest 393 452 36,000 300 Level Cleveland Center
06:30PM 40.3800 -79.9400 319° Northwest 393 452 36,600 600 Climbing Cleveland Center
06:31PM 40.4308 -80.0758 296° West 399 459 37,300 660 Climbing Cleveland Center
06:32PM 40.4792 -80.2092 296° West 399 459 38,000 300 Climbing Cleveland Center
06:33PM 40.5297 -80.3372 297° West 399 459 38,000  Level Cleveland Center
06:34PM 40.5819 -80.4656 298° West 399 459 38,000  Level Cleveland Center
06:35PM 40.6278 -80.5967 295° West 399 459 38,000  Level Cleveland Center
06:36PM 40.6778 -80.7281 297° West 399 459 38,000  Level Cleveland Center
06:37PM 40.7236 -80.8489 297° West 399 459 38,000  Level Cleveland Center
06:38PM 40.7711 -80.9806 296° West 404 465 38,000  Level Cleveland Center
06:39PM 40.8144 -81.1100 294° West 404 465 38,000  Level Cleveland Center
06:40PM 40.8617 -81.2419 295° West 399 459 38,000  Level Cleveland Center
06:41PM 40.9086 -81.3717 296° West 399 459 38,000  Level Cleveland Center
06:42PM 40.9578 -81.5042 296° West 399 459 38,000  Level Cleveland Center
06:43PM 41.0064 -81.6481 294° West 399 459 38,000  Level Cleveland Center
06:44PM 41.0531 -81.7781 295° West 399 459 38,000  Level Cleveland Center
06:45PM 41.0997 -81.9111 295° West 399 459 38,000  Level Cleveland Center
06:46PM 41.1442 -82.0253 297° West 394 453 38,000  Level Cleveland Center
06:47PM 41.1922 -82.1697 294° West 394 453 38,000  Level Cleveland Center
06:48PM 41.2322 -82.2839 295° West 386 444 38,000  Level Cleveland Center
06:49PM 41.2783 -82.4122 296° West 379 436 38,000  Level Cleveland Center
06:50PM 41.3239 -82.5436 295° West 379 436 38,000  Level Cleveland Center
06:51PM 41.3656 -82.6692 294° West 379 436 38,000  Level Cleveland Center
06:52PM 41.4089 -82.7981 294° West 379 436 38,000  Level Cleveland Center
06:53PM 41.4583 -82.9411 295° West 379 436 38,000  Level Cleveland Center
06:54PM 41.5036 -83.0675 296° West 374 430 38,000  Level Cleveland Center
06:55PM 41.5367 -83.1714 293° West 377 434 38,000  Level Cleveland Center
06:56PM 41.5856 -83.3094 295° West 377 434 38,000  Level Cleveland Center
06:57PM 41.6261 -83.4417 292° West 377 434 38,000  Level Cleveland Center
06:58PM 41.6708 -83.5689 295° West 377 434 38,000  Level Cleveland Center
06:59PM 41.7133 -83.6986 294° West 377 434 38,000  Level Cleveland Center
07:00PM 41.7575 -83.8317 294° West 383 441 38,000  Level Cleveland Center
07:01PM 41.8419 -84.0758 295° West 385 443 38,000  Level Chicago Center
07:02PM 41.8847 -84.2067 294° West 384 442 38,000  Level Chicago Center
07:04PM 41.9275 -84.3389 294° West 387 445 38,000  Level Chicago Center
07:05PM 41.9722 -84.4750 294° West 386 444 38,000  Level Chicago Center
07:06PM 42.0144 -84.6083 293° West 386 444 38,000  Level Chicago Center
07:07PM 42.0572 -84.7397 294° West 385 443 38,000  Level Chicago Center
07:08PM 42.1003 -84.8747 293° West 392 451 38,000  Level Chicago Center
07:09PM 42.1428 -85.0075 293° West 389 448 38,000  Level Chicago Center
07:10PM 42.1933 -85.1714 293° West 395 455 38,000  Level Chicago Center
07:11PM 42.2372 -85.3072 294° West 396 456 38,000  Level Chicago Center
07:12PM 42.2789 -85.4450 292° West 396 456 38,000  Level Chicago Center
07:13PM 42.3206 -85.5811 293° West 394 453 38,000  Level Chicago Center
07:14PM 42.3625 -85.7133 293° West 385 443 38,000  Level Chicago Center
07:15PM 42.4036 -85.8494 292° West 389 448 38,000  Level Chicago Center
07:16PM 42.4447 -85.9858 292° West 391 450 38,000  Level Chicago Center
07:17PM 42.4858 -86.1211 292° West 389 448 38,000  Level Chicago Center
07:18PM 42.5264 -86.2544 292° West 383 441 38,000  Level Chicago Center
07:19PM 42.5742 -86.4142 292° West 381 438 38,000  Level Chicago Center
07:20PM 42.6142 -86.5464 292° West 380 437 38,000  Level Chicago Center
07:21PM 42.6525 -86.6767 292° West 373 429 38,000  Level Chicago Center
07:22PM 42.6922 -86.8092 292° West 377 434 38,000  Level Chicago Center
07:23PM 42.7308 -86.9394 292° West 372 428 38,000  Level Chicago Center
07:24PM 42.7678 -87.0689 291° West 365 420 38,000  Level Chicago Center
07:25PM 42.8072 -87.1997 292° West 373 429 38,000  Level Chicago Center
07:26PM 42.8444 -87.3311 291° West 373 429 38,000  Level Chicago Center
07:27PM 42.8850 -87.4719 291° West 381 438 38,000  Level Chicago Center
07:28PM 42.9306 -87.6294 292° West 385 443 38,000  Level Chicago Center
07:29PM 42.9681 -87.7631 291° West 378 435 38,000  Level Chicago Center
07:30PM 43.0069 -87.8989 291° West 382 440 38,000  Level Chicago Center
07:31PM 43.0447 -88.0350 291° West 383 441 38,000  Level Chicago Center
07:32PM 43.0828 -88.1703 291° West 382 440 38,000  Level Chicago Center
07:33PM 43.1150 -88.3067 288° West 378 435 38,000  Level Chicago Center
07:34PM 43.1175 -88.4508 271° West 378 435 38,000  Level Chicago Center
07:35PM 43.1206 -88.5942 272° West 375 432 38,000  Level Chicago Center
07:36PM 43.1231 -88.7611 271° West 375 432 38,000  Level Chicago Center
07:37PM 43.1244 -88.9036 271° West 373 429 38,000  Level Chicago Center
07:38PM 43.1272 -89.0469 272° West 374 430 38,000  Level Chicago Center
07:39PM 43.1281 -89.1883 271° West 371 427 38,000  Level Chicago Center
07:40PM 43.1300 -89.3306 271° West 373 429 38,000  Level Chicago Center
07:41PM 43.1308 -89.4706 271° West 369 425 38,000  Level Chicago Center
07:43PM 43.1314 -89.6111 270° West 368 423 38,000  Level Chicago Center
07:44PM 43.1317 -89.7506 270° West 367 422 38,000  Level Chicago Center
07:45PM 43.1325 -89.8886 271° West 363 418 38,000  Level Chicago Center
07:46PM 43.1331 -90.0511 270° West 365 420 38,000  Level Chicago Center
07:47PM 43.1331 -90.1922 270° West 370 426 38,000  Level Chicago Center
07:48PM 43.1328 -90.3128 270° West 369 425 38,000  Level Chicago Center
07:49PM 43.1333 -90.4803 270° West 371 427 38,000  Level Chicago Center
07:50PM 43.1333 -90.6200 270° West 371 427 38,000  Level Chicago Center
07:51PM 43.1331 -90.7603 270° West 372 428 38,000  Level Chicago Center
07:52PM 43.1325 -90.8983 270° West 370 426 38,000  Level Chicago Center
07:53PM 43.1317 -91.0369 270° West 371 427 38,000  Level Chicago Center
07:54PM 43.1311 -91.1736 270° West 366 421 38,000  Level Chicago Center
07:55PM 43.1292 -91.3375 269° West 365 420 38,000  Level Chicago Center
07:56PM 43.1308 -91.4467 271° West 365 420 38,000  Level Minneapolis Center
07:57PM 43.1292 -91.5836 269° West 365 420 38,000  Level Minneapolis Center
07:58PM 43.1267 -91.7200 269° West 366 421 38,000  Level Minneapolis Center
07:59PM 43.1231 -91.8856 268° West 368 423 38,000  Level Minneapolis Center
08:00PM 43.1214 -92.0236 269° West 369 425 38,000  Level Minneapolis Center
08:01PM 43.1175 -92.1889 268° West 369 425 38,000  Level Chicago Center
08:02PM 43.1164 -92.3272 269° West 370 426 38,000  Level Chicago Center
08:03PM 43.1144 -92.4372 269° West 367 422 38,000  Level Minneapolis Center
08:04PM 43.1108 -92.5764 268° West 370 426 38,000  Level Minneapolis Center
08:05PM 43.1075 -92.7414 268° West 367 422 38,000  Level Minneapolis Center
08:06PM 43.1044 -92.8775 268° West 364 419 38,000  Level Minneapolis Center
08:07PM 43.1019 -93.0147 269° West 365 420 38,000  Level Minneapolis Center
08:08PM 43.0983 -93.1533 268° West 368 423 38,000  Level Minneapolis Center
08:09PM 43.0953 -93.2911 268° West 367 422 38,000  Level Minneapolis Center
08:10PM 43.0842 -93.4303 264° West 370 426 38,000  Level Minneapolis Center
08:11PM 43.0686 -93.5956 263° West 370 426 38,000  Level Minneapolis Center
08:12PM 43.0544 -93.7344 262° West 371 427 38,000  Level Minneapolis Center
08:13PM 43.0436 -93.8725 264° West 370 426 38,000  Level Minneapolis Center
08:14PM 43.0292 -94.0111 262° West 372 428 38,000  Level Minneapolis Center
08:15PM 43.0156 -94.1489 262° West 370 426 38,000  Level Minneapolis Center
08:16PM 43.0028 -94.2864 263° West 370 426 38,000  Level Minneapolis Center
08:17PM 42.9922 -94.3967 263° West 369 425 38,000  Level Minneapolis Center
08:18PM 42.9725 -94.5914 262° West 374 430 38,000  Level Minneapolis Center
08:19PM 42.9581 -94.7167 261° West 368 423 38,000  Level Minneapolis Center
08:20PM 42.9442 -94.8564 262° West 371 427 38,000  Level Minneapolis Center
08:21PM 42.9261 -95.0225 262° West 369 425 38,000  Level Minneapolis Center
08:22PM 42.9111 -95.1614 262° West 370 426 38,000  Level Minneapolis Center
08:23PM 42.8958 -95.3022 262° West 375 432 38,000  Level Minneapolis Center
08:24PM 42.8800 -95.4425 261° West 374 430 38,000  Level Minneapolis Center
08:25PM 42.8644 -95.5822 261° West 374 430 38,000  Level Minneapolis Center
08:26PM 42.8489 -95.7239 262° West 377 434 38,000  Level Minneapolis Center
08:27PM 42.8325 -95.8664 261° West 380 437 38,000  Level Minneapolis Center
08:28PM 42.8156 -96.0092 261° West 382 440 38,000  Level Minneapolis Center
08:29PM 42.7989 -96.1511 261° West 380 437 38,000  Level Minneapolis Center
08:30PM 42.7789 -96.3236 261° West 383 441 38,000  Level Minneapolis Center
08:32PM 42.7619 -96.4658 261° West 381 438 38,000  Level Minneapolis Center
08:33PM 42.7442 -96.6094 260° West 383 441 38,000  Level Minneapolis Center
08:34PM 42.7267 -96.7519 261° West 382 440 38,000  Level Minneapolis Center
08:35PM 42.7092 -96.8936 261° West 381 438 38,000  Level Minneapolis Center
08:36PM 42.6908 -97.0383 260° West 387 445 38,000  Level Minneapolis Center
08:37PM 42.6714 -97.1947 260° West 383 441 38,000  Level Minneapolis Center
08:38PM 42.6531 -97.3353 260° West 380 437 38,000  Level Minneapolis Center
08:39PM 42.6347 -97.4736 260° West 375 432 38,000  Level Minneapolis Center
08:40PM 42.6164 -97.6147 260° West 380 437 38,000  Level Minneapolis Center
08:41PM 42.5983 -97.7533 260° West 375 432 38,000  Level Minneapolis Center
08:42PM 42.5803 -97.8883 260° West 373 429 38,000  Level Minneapolis Center
08:43PM 42.5572 -98.0522 259° West 369 425 38,000  Level Minneapolis Center
08:44PM 42.5389 -98.1900 260° West 370 426 38,000  Level Minneapolis Center
08:45PM 42.5203 -98.3244 259° West 365 420 38,000  Level Minneapolis Center
08:46PM 42.5019 -98.4617 260° West 368 423 38,000  Level Minneapolis Center
08:47PM 42.4822 -98.5975 259° West 369 425 38,000  Level Minneapolis Center
08:48PM 42.4650 -98.7322 260° West 365 420 38,000  Level Minneapolis Center
08:49PM 42.4528 -98.8719 263° West 372 428 38,000  Level Minneapolis Center
08:50PM 42.4383 -99.0094 262° West 371 427 38,000  Level Minneapolis Center
08:51PM 42.4219 -99.1742 262° West 369 425 38,000  Level Minneapolis Center
08:52PM 42.4106 -99.2842 262° West 370 426 38,000  Level Minneapolis Center
08:53PM 42.3931 -99.4497 262° West 371 427 38,000  Level Minneapolis Center
08:54PM 42.3778 -99.5881 262° West 373 429 38,000  Level Minneapolis Center
08:55PM 42.3636 -99.7267 262° West 373 429 38,000  Level Minneapolis Center
08:56PM 42.3478 -99.8644 261° West 373 429 38,000  Level Minneapolis Center
08:57PM 42.3311 -100.0206 262° West 371 427 38,000  Level Denver Center
08:58PM 42.3158 -100.1631 262° West 366 421 38,000  Level Minneapolis Center
08:59PM 42.2997 -100.2986 261° West 367 422 38,000  Level Minneapolis Center
09:00PM 42.2847 -100.4322 261° West 363 418 38,000  Level Minneapolis Center
09:01PM 42.2672 -100.5808 261° West 366 421 38,000  Level Denver Center
09:03PM 42.2472 -100.7500 261° West 361 415 38,000  Level Denver Center
09:04PM 42.2328 -100.8781 261° West 360 414 38,000  Level Denver Center
09:05PM 42.2147 -101.0286 261° West 364 419 38,000  Level Denver Center
09:06PM 42.1972 -101.1767 261° West 361 415 38,100 480 Climbing Denver Center
09:07PM 42.1792 -101.3258 261° West 361 415 39,000 660 Climbing Denver Center
09:08PM 42.1633 -101.4561 261° West 368 423 39,500 480 Climbing Denver Center
09:09PM 42.1469 -101.5872 260° West 372 428 40,000 240 Climbing Denver Center
09:10PM 42.1328 -101.7419 263° West 374 430 40,000  Level Denver Center
09:11PM 42.1272 -101.8764 267° West 376 433 40,000  Level Denver Center
09:12PM 42.1208 -102.0325 267° West 376 433 40,000  Level Denver Center
09:13PM 42.1153 -102.1675 267° West 378 435 40,000  Level Denver Center
09:14PM 42.1064 -102.3169 265° West 378 435 40,000  Level Denver Center
09:15PM 42.1019 -102.4308 267° West 380 437 40,000  Level Denver Center
09:16PM 42.0919 -102.6133 266° West 384 442 40,000  Level Denver Center
09:17PM 42.0856 -102.7258 266° West 379 436 40,000  Level Denver Center
09:18PM 42.0647 -102.8806 260° West 377 434 40,000  Level Denver Center
09:19PM 42.0417 -103.0328 259° West 374 430 40,000  Level Denver Center
09:20PM 42.0233 -103.1647 259° West 374 430 40,000  Level Denver Center
09:21PM 42.0019 -103.3181 259° West 374 430 40,000  Level Denver Center
09:22PM 41.9833 -103.4492 259° West 373 429 40,000  Level Denver Center
09:23PM 41.9650 -103.5831 260° West 378 435 40,000  Level Denver Center
09:24PM 41.9422 -103.7414 259° West 385 443 40,000  Level Denver Center
09:25PM 41.9231 -103.8769 259° West 386 444 40,000  Level Denver Center
09:26PM 41.9033 -104.0128 259° West 386 444 40,000  Level Denver Center
09:27PM 41.8808 -104.1733 259° West 390 449 40,000  Level Denver Center
09:28PM 41.8733 -104.3117 266° West 389 448 40,000  Level Denver Center
09:29PM 41.8681 -104.4750 268° West 390 449 40,000  Level Denver Center
09:30PM 41.8619 -104.6136 267° West 389 448 40,000  Level Denver Center
09:32PM 41.8564 -104.7522 267° West 389 448 40,000  Level Denver Center
09:33PM 41.8483 -104.9344 267° West 385 443 40,000  Level Denver Center
09:34PM 41.8419 -105.0714 266° West 384 442 40,000  Level Denver Center
09:35PM 41.8344 -105.2319 266° West 385 443 40,000  Level Denver Center
09:36PM 41.8269 -105.3697 266° West 386 444 40,000  Level Denver Center
09:37PM 41.8208 -105.5106 267° West 391 450 40,000  Level Denver Center
09:38PM 41.8131 -105.6483 266° West 391 450 40,000  Level Denver Center
09:39PM 41.8047 -105.8128 266° West 394 453 40,000  Level Denver Center
09:40PM 41.7969 -105.9761 266° West 394 453 40,000  Level Denver Center
09:41PM 41.7908 -106.1092 267° West 382 440 40,000  Level Denver Center
09:42PM 41.7814 -106.2394 264° West 371 427 40,000  Level Denver Center
09:43PM 41.7731 -106.3983 266° West 382 440 40,000  Level Denver Center
09:44PM 41.7653 -106.5322 266° West 382 440 40,000  Level Denver Center
09:45PM 41.7544 -106.7142 265° West 385 443 40,000  Level Denver Center
09:46PM 41.7450 -106.8500 265° West 384 442 40,000  Level Denver Center
09:47PM 41.7356 -107.0086 265° West 383 441 40,000  Level Denver Center
09:48PM 41.7272 -107.1447 265° West 384 442 40,000  Level Denver Center
09:49PM 41.7164 -107.3022 265° West 381 438 40,000  Level Denver Center
09:50PM 41.7078 -107.4386 265° West 385 443 40,000  Level Denver Center
09:51PM 41.7033 -107.5094 265° West 388 447 40,000  Level Salt Lake Center
09:52PM 41.7072 -107.6733 272° West 394 453 40,000  Level Salt Lake Center
09:52PM 41.7103 -107.7422 273° West 394 453 40,000  Level Denver Center
09:54PM 41.7147 -107.8825 272° West 395 455 40,000  Level Denver Center
09:54PM 41.7178 -107.9531 273° West 394 453 40,000  Level Salt Lake Center
09:55PM 41.7228 -108.1158 272° West 393 452 40,000  Level Salt Lake Center
09:56PM 41.7269 -108.2081 273° West 393 452 40,000  Level Denver Center
09:57PM 41.7322 -108.3683 273° West 388 447 40,000 -240 Level Denver Center
09:57PM 41.7328 -108.4156 271° West 391 450 39,700 -1,020 Descending Salt Lake Center
09:58PM 41.7369 -108.5525 272° West 389 448 38,700 -960 Descending Salt Lake Center
09:59PM 41.7419 -108.6908 273° West 389 448 37,800 -960 Descending Salt Lake Center
10:00PM 41.7461 -108.8533 272° West 395 455 36,800 -900 Descending Salt Lake Center
10:01PM 41.7500 -108.9953 272° West 401 461 36,000 -420 Descending Salt Lake Center
10:02PM 41.7558 -109.1550 273° West 391 450 36,000  Level Salt Lake Center
10:03PM 41.7589 -109.2933 272° West 391 450 36,000  Level Salt Lake Center
10:04PM 41.7606 -109.4531 271° West 388 447 36,000  Level Salt Lake Center
10:05PM 41.7644 -109.5903 272° West 387 445 36,000  Level Salt Lake Center
10:06PM 41.7683 -109.7536 272° West 393 452 36,000  Level Salt Lake Center
10:07PM 41.7706 -109.8919 271° West 391 450 36,000  Level Salt Lake Center
10:08PM 41.7731 -110.0306 271° West 391 450 36,000  Level Salt Lake Center
10:09PM 41.7758 -110.1936 271° West 393 452 36,000 -60 Level Salt Lake Center
10:10PM 41.7786 -110.3344 272° West 395 455 35,900 -1,620 Descending Salt Lake Center
10:11PM 41.7814 -110.5014 271° West 400 460 32,800 -2,100 Descending Salt Lake Center
10:12PM 41.7669 -110.6419 262° West 401 461 31,700 -1,140 Descending Salt Lake Center
10:13PM 41.7456 -110.8031 260° West 395 455 30,500 -840 Descending Salt Lake Center
10:14PM 41.7256 -110.9392 259° West 390 449 30,000 -780 Descending Salt Lake Center
10:15PM 41.7058 -111.0786 259° West 388 447 29,000 -1,020 Descending Salt Lake Center
10:16PM 41.6858 -111.2158 259° West 380 437 28,000 -1,020 Descending Salt Lake Center
10:17PM 41.6661 -111.3503 259° West 373 429 27,000 -1,140 Descending Salt Lake Center
10:18PM 41.6472 -111.4569 257° West 374 430 26,100 -1,020 Descending Salt Lake Center
10:18PM 41.6453 -111.4842 265° West 370 426 26,000 -1,020 Descending Salt Lake Center
10:19PM 41.6322 -111.5456 254° West 366 421 25,400 -1,200 Descending Salt Lake Center
10:19PM 41.6214 -111.6419 261° West 365 420 24,800 -1,020 Descending Salt Lake Center
10:20PM 41.6158 -111.6689 255° West 367 422 24,500 -1,500 Descending Salt Lake Center
10:20PM 41.6011 -111.7742 259° West 367 422 23,300 -1,800 Descending Salt Lake Center
10:21PM 41.5967 -111.8019 258° West 366 421 22,700 -1,380 Descending Salt Lake Center
10:21PM 41.5528 -111.8797 233° Southwest 359 413 21,900 -1,080 Descending Salt Lake Center
10:22PM 41.5158 -111.8958 198° South 363 418 21,500 -1,020 Descending Salt Lake Center
10:22PM 41.4600 -111.9306 205° Southwest 362 417 20,900 -960 Descending Salt Lake Center
10:23PM 41.3694 -111.9822 203° Southwest 357 411 19,900 -1,140 Descending Salt Lake Center
10:24PM 41.3336 -111.9986 199° South 354 407 19,400 -1,140 Descending Salt Lake Center
10:25PM 41.2800 -112.0314 205° Southwest 352 405 18,800 -1,260 Descending Salt Lake Center
10:26PM 41.1925 -112.0811 203° Southwest 347 399 17,300 -1,860 Descending Salt Lake Center
10:27PM 41.0897 -112.1381 203° Southwest 337 388 15,000 -2,160 Descending Salt Lake Center
10:28PM 40.9964 -112.1297 176° South 346 398 12,900 -1,860 Descending Salt Lake Center
10:29PM 40.8811 -112.1072 172° South 340 391 10,900 -1,020 Descending Salt Lake Center
10:30PM 40.8211 -112.0994 174° South 292 336 10,900 -480 Level Salt Lake Center
10:31PM 40.7514 -112.0908 175° South 251 289 10,100 -960 Descending Salt Lake Center
10:32PM 40.6839 -112.0833 175° South 243 280 9,000 -540 Descending Salt Lake Center
10:33PM 40.6075 -112.0744 175° South 223 257 9,000 -420 Level Salt Lake Center
10:34PM 40.5908 -112.0100 109° East 213 245 8,200 -900 Descending Salt Lake Center
10:35PM 40.6239 -111.9594 49° Northeast 190 219 7,100 -1,020 Descending Salt Lake Center
10:36PM 40.6664 -111.9608 359° North 184 212 6,200 -1,020 Descending Salt Lake Center
10:37PM 40.7158 -111.9661 355° North 179 206 5,300 -900 Descending Salt Lake Center
10:38PM 40.7581 -111.9733 353° North 151 174 4,500 -540 Descending Salt Lake Center
10:39PM 40.7944 -111.9742 359° North 141 162 4,200 -300 Descending Salt Lake Center